sensor_id;sensor_type;location;lat;lon;timestamp;pressure;altitude;pressure_sealevel;temperature;humidity
38038;BME280;23843;51.320;12.340;2022-07-21T00:00:15;100217.19;;;28.08;30.55
38038;BME280;23843;51.320;12.340;2022-07-21T00:02:41;100217.59;;;28.05;30.31
38038;BME280;23843;51.320;12.340;2022-07-21T00:05:07;100209.88;;;27.81;30.55
38038;BME280;23843;51.320;12.340;2022-07-21T00:07:32;100213.63;;;27.80;30.86
38038;BME280;23843;51.320;12.340;2022-07-21T00:09:58;100211.53;;;27.82;31.35
38038;BME280;23843;51.320;12.340;2022-07-21T00:12:25;100231.66;;;27.81;31.49
38038;BME280;23843;51.320;12.340;2022-07-21T00:14:50;100232.91;;;27.78;31.50
38038;BME280;23843;51.320;12.340;2022-07-21T00:17:15;100232.06;;;27.78;31.40
38038;BME280;23843;51.320;12.340;2022-07-21T00:19:41;100224.09;;;27.76;31.00
38038;BME280;23843;51.320;12.340;2022-07-21T00:22:06;100233.28;;;27.75;31.45
38038;BME280;23843;51.320;12.340;2022-07-21T00:24:32;100222.13;;;27.70;31.73
38038;BME280;23843;51.320;12.340;2022-07-21T00:26:57;100219.72;;;27.53;31.73
38038;BME280;23843;51.320;12.340;2022-07-21T00:29:24;100223.69;;;27.51;32.21
38038;BME280;23843;51.320;12.340;2022-07-21T00:31:49;100222.97;;;27.42;31.92
38038;BME280;23843;51.320;12.340;2022-07-21T00:34:15;100226.22;;;27.31;32.55
38038;BME280;23843;51.320;12.340;2022-07-21T00:36:40;100231.63;;;27.24;34.03
38038;BME280;23843;51.320;12.340;2022-07-21T00:39:05;100226.34;;;27.23;32.72
38038;BME280;23843;51.320;12.340;2022-07-21T00:41:31;100225.91;;;27.19;34.52
38038;BME280;23843;51.320;12.340;2022-07-21T00:43:56;100228.69;;;27.26;34.60
38038;BME280;23843;51.320;12.340;2022-07-21T00:46:23;100233.03;;;27.20;33.82
38038;BME280;23843;51.320;12.340;2022-07-21T00:48:49;100226.66;;;27.13;35.86
38038;BME280;23843;51.320;12.340;2022-07-21T00:51:14;100228.34;;;27.14;36.17
38038;BME280;23843;51.320;12.340;2022-07-21T00:53:40;100233.50;;;27.09;36.08
38038;BME280;23843;51.320;12.340;2022-07-21T00:56:06;100231.00;;;27.07;36.21
38038;BME280;23843;51.320;12.340;2022-07-21T00:58:31;100234.13;;;27.04;36.32
38038;BME280;23843;51.320;12.340;2022-07-21T01:00:57;100228.84;;;27.03;36.78
38038;BME280;23843;51.320;12.340;2022-07-21T01:03:24;100230.91;;;27.01;36.83
38038;BME280;23843;51.320;12.340;2022-07-21T01:05:49;100239.66;;;26.96;36.61
38038;BME280;23843;51.320;12.340;2022-07-21T01:08:15;100243.03;;;26.98;36.46
38038;BME280;23843;51.320;12.340;2022-07-21T01:10:40;100248.91;;;27.02;36.87
38038;BME280;23843;51.320;12.340;2022-07-21T01:13:06;100253.25;;;26.96;37.11
38038;BME280;23843;51.320;12.340;2022-07-21T01:15:31;100257.59;;;26.90;36.17
38038;BME280;23843;51.320;12.340;2022-07-21T01:17:57;100262.53;;;26.87;38.13
38038;BME280;23843;51.320;12.340;2022-07-21T01:20:24;100260.41;;;26.82;38.51
38038;BME280;23843;51.320;12.340;2022-07-21T01:22:53;100267.53;;;26.83;38.52
38038;BME280;23843;51.320;12.340;2022-07-21T01:25:20;100277.09;;;26.79;38.91
38038;BME280;23843;51.320;12.340;2022-07-21T01:27:45;100274.00;;;26.82;38.40
38038;BME280;23843;51.320;12.340;2022-07-21T01:30:12;100280.66;;;26.80;38.76
38038;BME280;23843;51.320;12.340;2022-07-21T01:32:39;100284.41;;;26.79;37.32
38038;BME280;23843;51.320;12.340;2022-07-21T01:35:07;100289.09;;;26.70;38.96
38038;BME280;23843;51.320;12.340;2022-07-21T01:37:35;100293.44;;;26.64;38.60
38038;BME280;23843;51.320;12.340;2022-07-21T01:40:03;100286.13;;;26.65;37.32
38038;BME280;23843;51.320;12.340;2022-07-21T01:42:29;100301.13;;;26.61;38.78
38038;BME280;23843;51.320;12.340;2022-07-21T01:44:55;100304.59;;;26.55;39.00
38038;BME280;23843;51.320;12.340;2022-07-21T01:47:20;100309.19;;;26.54;39.31
38038;BME280;23843;51.320;12.340;2022-07-21T01:49:45;100308.63;;;26.59;38.95
38038;BME280;23843;51.320;12.340;2022-07-21T01:52:11;100313.00;;;26.60;39.68
38038;BME280;23843;51.320;12.340;2022-07-21T01:54:36;100314.75;;;26.53;39.45
38038;BME280;23843;51.320;12.340;2022-07-21T01:57:03;100306.16;;;26.49;40.08
38038;BME280;23843;51.320;12.340;2022-07-21T01:59:29;100305.69;;;26.45;39.51
38038;BME280;23843;51.320;12.340;2022-07-21T02:01:54;100318.81;;;26.42;39.73
38038;BME280;23843;51.320;12.340;2022-07-21T02:04:19;100327.50;;;26.37;39.48
38038;BME280;23843;51.320;12.340;2022-07-21T02:06:45;100336.97;;;26.41;39.50
38038;BME280;23843;51.320;12.340;2022-07-21T02:09:10;100339.22;;;26.38;39.19
38038;BME280;23843;51.320;12.340;2022-07-21T02:11:36;100339.75;;;26.33;39.44
38038;BME280;23843;51.320;12.340;2022-07-21T02:14:03;100344.06;;;26.27;39.99
38038;BME280;23843;51.320;12.340;2022-07-21T02:16:29;100340.97;;;26.31;39.66
38038;BME280;23843;51.320;12.340;2022-07-21T02:18:54;100343.25;;;26.27;39.72
38038;BME280;23843;51.320;12.340;2022-07-21T02:21:20;100349.69;;;26.26;39.39
38038;BME280;23843;51.320;12.340;2022-07-21T02:23:45;100357.53;;;26.21;39.64
38038;BME280;23843;51.320;12.340;2022-07-21T02:26:11;100348.56;;;26.20;39.34
38038;BME280;23843;51.320;12.340;2022-07-21T02:28:37;100356.03;;;26.18;39.94
38038;BME280;23843;51.320;12.340;2022-07-21T02:31:04;100372.44;;;26.25;39.65
38038;BME280;23843;51.320;12.340;2022-07-21T02:33:29;100363.47;;;26.24;39.23
38038;BME280;23843;51.320;12.340;2022-07-21T02:35:55;100365.91;;;26.19;39.19
38038;BME280;23843;51.320;12.340;2022-07-21T02:38:20;100375.25;;;26.17;38.29
38038;BME280;23843;51.320;12.340;2022-07-21T02:40:46;100389.38;;;26.12;38.62
38038;BME280;23843;51.320;12.340;2022-07-21T02:43:11;100385.81;;;26.12;38.95
38038;BME280;23843;51.320;12.340;2022-07-21T02:45:37;100378.03;;;26.09;39.22
38038;BME280;23843;51.320;12.340;2022-07-21T02:48:05;100377.19;;;26.08;38.67
38038;BME280;23843;51.320;12.340;2022-07-21T02:50:33;100376.66;;;26.13;39.02
38038;BME280;23843;51.320;12.340;2022-07-21T02:53:01;100375.25;;;26.17;38.31
38038;BME280;23843;51.320;12.340;2022-07-21T02:55:27;100387.88;;;26.10;38.59
38038;BME280;23843;51.320;12.340;2022-07-21T02:58:03;100392.34;;;26.02;38.36
38038;BME280;23843;51.320;12.340;2022-07-21T03:00:29;100395.78;;;25.96;38.40
38038;BME280;23843;51.320;12.340;2022-07-21T03:02:54;100403.25;;;25.94;38.80
38038;BME280;23843;51.320;12.340;2022-07-21T03:05:21;100408.69;;;25.94;38.72
38038;BME280;23843;51.320;12.340;2022-07-21T03:07:46;100405.91;;;26.02;38.67
38038;BME280;23843;51.320;12.340;2022-07-21T03:10:12;100414.91;;;26.03;38.54
38038;BME280;23843;51.320;12.340;2022-07-21T03:12:37;100413.69;;;26.05;38.54
38038;BME280;23843;51.320;12.340;2022-07-21T03:15:03;100421.00;;;26.05;38.69
38038;BME280;23843;51.320;12.340;2022-07-21T03:17:28;100420.47;;;26.10;38.27
38038;BME280;23843;51.320;12.340;2022-07-21T03:19:54;100429.56;;;26.17;38.38
38038;BME280;23843;51.320;12.340;2022-07-21T03:22:20;100419.81;;;26.22;38.12
38038;BME280;23843;51.320;12.340;2022-07-21T03:24:46;100431.16;;;26.26;38.50
38038;BME280;23843;51.320;12.340;2022-07-21T03:27:11;100425.94;;;26.24;38.54
38038;BME280;23843;51.320;12.340;2022-07-21T03:29:37;100429.84;;;26.22;38.98
38038;BME280;23843;51.320;12.340;2022-07-21T03:32:03;100429.19;;;26.20;39.29
38038;BME280;23843;51.320;12.340;2022-07-21T03:34:28;100425.97;;;26.16;38.88
38038;BME280;23843;51.320;12.340;2022-07-21T03:36:54;100429.06;;;26.13;39.66
38038;BME280;23843;51.320;12.340;2022-07-21T03:39:20;100417.63;;;26.03;40.01
38038;BME280;23843;51.320;12.340;2022-07-21T03:41:46;100412.25;;;25.95;40.46
38038;BME280;23843;51.320;12.340;2022-07-21T03:44:11;100415.44;;;25.98;40.42
38038;BME280;23843;51.320;12.340;2022-07-21T03:46:37;100410.19;;;25.97;39.92
38038;BME280;23843;51.320;12.340;2022-07-21T03:49:02;100415.06;;;26.01;40.45
38038;BME280;23843;51.320;12.340;2022-07-21T03:51:27;100415.44;;;25.98;40.15
38038;BME280;23843;51.320;12.340;2022-07-21T03:53:53;100415.44;;;25.98;40.28
38038;BME280;23843;51.320;12.340;2022-07-21T03:56:20;100418.81;;;26.00;40.25
38038;BME280;23843;51.320;12.340;2022-07-21T03:58:45;100415.38;;;26.07;40.18
38038;BME280;23843;51.320;12.340;2022-07-21T04:01:10;100422.78;;;26.13;39.95
38038;BME280;23843;51.320;12.340;2022-07-21T04:03:36;100424.47;;;26.14;40.08
38038;BME280;23843;51.320;12.340;2022-07-21T04:06:01;100430.78;;;26.14;39.81
38038;BME280;23843;51.320;12.340;2022-07-21T04:08:27;100427.84;;;26.16;40.02
38038;BME280;23843;51.320;12.340;2022-07-21T04:10:52;100428.59;;;26.10;40.29
38038;BME280;23843;51.320;12.340;2022-07-21T04:13:19;100424.25;;;26.00;40.95
38038;BME280;23843;51.320;12.340;2022-07-21T04:15:44;100417.44;;;26.04;40.83
38038;BME280;23843;51.320;12.340;2022-07-21T04:18:10;100417.66;;;26.18;40.69
38038;BME280;23843;51.320;12.340;2022-07-21T04:20:35;100421.63;;;26.30;40.86
38038;BME280;23843;51.320;12.340;2022-07-21T04:23:01;100418.47;;;26.41;41.19
38038;BME280;23843;51.320;12.340;2022-07-21T04:25:27;100420.06;;;26.51;40.76
38038;BME280;23843;51.320;12.340;2022-07-21T04:27:53;100418.81;;;26.76;40.97
38038;BME280;23843;51.320;12.340;2022-07-21T04:30:21;100413.94;;;26.86;40.65
38038;BME280;23843;51.320;12.340;2022-07-21T04:32:47;100411.81;;;27.18;40.63
38038;BME280;23843;51.320;12.340;2022-07-21T04:35:14;100399.44;;;27.67;39.56
38038;BME280;23843;51.320;12.340;2022-07-21T04:37:39;100397.19;;;28.13;39.17
38038;BME280;23843;51.320;12.340;2022-07-21T04:40:08;100389.06;;;28.76;37.86
38038;BME280;23843;51.320;12.340;2022-07-21T04:42:34;100396.25;;;29.32;37.27
38038;BME280;23843;51.320;12.340;2022-07-21T04:44:59;100393.44;;;29.74;36.83
38038;BME280;23843;51.320;12.340;2022-07-21T04:47:26;100389.47;;;29.83;36.63
38038;BME280;23843;51.320;12.340;2022-07-21T04:49:52;100400.81;;;29.73;36.56
38038;BME280;23843;51.320;12.340;2022-07-21T04:52:17;100414.38;;;29.60;36.75
38038;BME280;23843;51.320;12.340;2022-07-21T04:54:43;100415.78;;;29.36;37.01
38038;BME280;23843;51.320;12.340;2022-07-21T04:57:08;100407.38;;;29.24;37.33
38038;BME280;23843;51.320;12.340;2022-07-21T04:59:34;100414.69;;;29.17;37.29
38038;BME280;23843;51.320;12.340;2022-07-21T05:02:00;100424.13;;;29.21;37.48
38038;BME280;23843;51.320;12.340;2022-07-21T05:04:27;100428.31;;;29.17;37.59
38038;BME280;23843;51.320;12.340;2022-07-21T05:06:53;100440.44;;;29.08;37.21
38038;BME280;23843;51.320;12.340;2022-07-21T05:09:18;100449.31;;;29.23;37.33
38038;BME280;23843;51.320;12.340;2022-07-21T05:11:44;100449.75;;;29.27;37.49
38038;BME280;23843;51.320;12.340;2022-07-21T05:14:10;100451.25;;;29.29;37.48
38038;BME280;23843;51.320;12.340;2022-07-21T05:16:36;100448.31;;;28.96;38.06
38038;BME280;23843;51.320;12.340;2022-07-21T05:19:02;100446.78;;;28.87;37.78
38038;BME280;23843;51.320;12.340;2022-07-21T05:21:29;100449.31;;;28.88;37.69
38038;BME280;23843;51.320;12.340;2022-07-21T05:23:54;100453.47;;;28.84;37.47
38038;BME280;23843;51.320;12.340;2022-07-21T05:26:20;100450.09;;;28.82;37.54
38038;BME280;23843;51.320;12.340;2022-07-21T05:28:45;100458.44;;;28.74;37.86
38038;BME280;23843;51.320;12.340;2022-07-21T05:31:11;100461.09;;;28.61;37.76
38038;BME280;23843;51.320;12.340;2022-07-21T05:33:36;100458.91;;;28.49;38.15
38038;BME280;23843;51.320;12.340;2022-07-21T05:36:02;100452.94;;;28.39;37.92
38038;BME280;23843;51.320;12.340;2022-07-21T05:38:29;100452.38;;;28.22;38.38
38038;BME280;23843;51.320;12.340;2022-07-21T05:40:54;100451.88;;;28.12;38.98
38038;BME280;23843;51.320;12.340;2022-07-21T05:43:20;100462.44;;;28.00;38.79
38038;BME280;23843;51.320;12.340;2022-07-21T05:45:45;100467.22;;;27.98;38.94
38038;BME280;23843;51.320;12.340;2022-07-21T05:48:10;100476.44;;;27.97;38.95
38038;BME280;23843;51.320;12.340;2022-07-21T05:50:36;100478.88;;;27.92;38.63
38038;BME280;23843;51.320;12.340;2022-07-21T05:53:01;100473.91;;;27.95;38.96
38038;BME280;23843;51.320;12.340;2022-07-21T05:55:28;100475.13;;;27.93;39.25
38038;BME280;23843;51.320;12.340;2022-07-21T05:57:53;100487.03;;;27.92;39.02
38038;BME280;23843;51.320;12.340;2022-07-21T06:00:19;100501.38;;;28.01;39.21
38038;BME280;23843;51.320;12.340;2022-07-21T06:02:46;100503.38;;;27.92;39.06
38038;BME280;23843;51.320;12.340;2022-07-21T06:05:11;100504.34;;;27.69;39.99
38038;BME280;23843;51.320;12.340;2022-07-21T06:07:37;100510.38;;;27.65;39.64
38038;BME280;23843;51.320;12.340;2022-07-21T06:10:03;100509.00;;;27.54;40.31
38038;BME280;23843;51.320;12.340;2022-07-21T06:12:30;100510.94;;;27.60;40.13
38038;BME280;23843;51.320;12.340;2022-07-21T06:14:55;100510.91;;;27.75;40.43
38038;BME280;23843;51.320;12.340;2022-07-21T06:17:21;100511.09;;;28.46;40.53
38038;BME280;23843;51.320;12.340;2022-07-21T06:19:46;100509.16;;;29.66;38.52
38038;BME280;23843;51.320;12.340;2022-07-21T06:22:12;100520.06;;;30.54;37.36
38038;BME280;23843;51.320;12.340;2022-07-21T06:24:37;100522.47;;;31.49;36.33
38038;BME280;23843;51.320;12.340;2022-07-21T06:27:03;100517.13;;;32.12;35.74
38038;BME280;23843;51.320;12.340;2022-07-21T06:29:30;100525.34;;;32.69;34.98
38038;BME280;23843;51.320;12.340;2022-07-21T06:31:55;100537.50;;;32.55;34.40
38038;BME280;23843;51.320;12.340;2022-07-21T06:34:20;100543.56;;;32.64;34.25
38038;BME280;23843;51.320;12.340;2022-07-21T06:36:46;100540.84;;;32.82;34.05
38038;BME280;23843;51.320;12.340;2022-07-21T06:39:11;100536.22;;;33.44;33.61
38038;BME280;23843;51.320;12.340;2022-07-21T06:41:37;100544.06;;;34.38;32.32
38038;BME280;23843;51.320;12.340;2022-07-21T06:44:02;100550.50;;;35.33;31.65
38038;BME280;23843;51.320;12.340;2022-07-21T06:46:29;100551.72;;;36.18;30.45
38038;BME280;23843;51.320;12.340;2022-07-21T06:48:54;100555.97;;;37.05;28.98
38038;BME280;23843;51.320;12.340;2022-07-21T06:51:20;100558.69;;;37.61;28.83
38038;BME280;23843;51.320;12.340;2022-07-21T06:53:45;100555.47;;;37.69;28.74
38038;BME280;23843;51.320;12.340;2022-07-21T06:56:11;100546.91;;;38.20;28.87
38038;BME280;23843;51.320;12.340;2022-07-21T06:58:36;100551.13;;;38.27;28.97
38038;BME280;23843;51.320;12.340;2022-07-21T07:01:02;100538.91;;;38.50;27.56
38038;BME280;23843;51.320;12.340;2022-07-21T07:03:29;100537.22;;;38.87;26.83
38038;BME280;23843;51.320;12.340;2022-07-21T07:05:54;100543.00;;;39.17;28.44
38038;BME280;23843;51.320;12.340;2022-07-21T07:08:20;100542.69;;;39.67;26.41
38038;BME280;23843;51.320;12.340;2022-07-21T07:10:45;100543.28;;;39.79;27.95
38038;BME280;23843;51.320;12.340;2022-07-21T07:13:11;100545.44;;;39.62;26.61
38038;BME280;23843;51.320;12.340;2022-07-21T07:15:36;100557.53;;;39.40;26.24
38038;BME280;23843;51.320;12.340;2022-07-21T07:18:02;100547.00;;;39.37;26.19
38038;BME280;23843;51.320;12.340;2022-07-21T07:20:32;100541.47;;;39.42;27.30
38038;BME280;23843;51.320;12.340;2022-07-21T07:22:58;100542.34;;;39.53;26.85
38038;BME280;23843;51.320;12.340;2022-07-21T07:25:23;100544.28;;;39.52;25.30
38038;BME280;23843;51.320;12.340;2022-07-21T07:27:50;100543.94;;;38.91;27.68
38038;BME280;23843;51.320;12.340;2022-07-21T07:30:16;100547.44;;;38.17;26.71
38038;BME280;23843;51.320;12.340;2022-07-21T07:32:42;100544.06;;;37.87;26.02
38038;BME280;23843;51.320;12.340;2022-07-21T07:35:09;100550.09;;;38.06;26.43
38038;BME280;23843;51.320;12.340;2022-07-21T07:37:37;100553.03;;;38.49;25.51
38038;BME280;23843;51.320;12.340;2022-07-21T07:40:04;100561.25;;;38.44;25.95
38038;BME280;23843;51.320;12.340;2022-07-21T07:42:30;100552.69;;;38.18;25.71
38038;BME280;23843;51.320;12.340;2022-07-21T07:44:55;100547.91;;;38.68;25.38
38038;BME280;23843;51.320;12.340;2022-07-21T07:47:20;100536.03;;;39.10;24.48
38038;BME280;23843;51.320;12.340;2022-07-21T07:49:46;100537.25;;;39.92;24.60
38038;BME280;23843;51.320;12.340;2022-07-21T07:52:11;100539.34;;;39.70;23.99
38038;BME280;23843;51.320;12.340;2022-07-21T07:54:38;100534.50;;;40.18;22.92
38038;BME280;23843;51.320;12.340;2022-07-21T07:57:03;100535.63;;;40.94;22.17
38038;BME280;23843;51.320;12.340;2022-07-21T07:59:29;100528.66;;;41.17;22.12
38038;BME280;23843;51.320;12.340;2022-07-21T08:01:54;100526.69;;;41.02;21.88
38038;BME280;23843;51.320;12.340;2022-07-21T08:04:20;100533.16;;;40.51;22.22
38038;BME280;23843;51.320;12.340;2022-07-21T08:06:45;100543.97;;;40.37;23.21
38038;BME280;23843;51.320;12.340;2022-07-21T08:09:11;100555.91;;;39.44;23.70
38038;BME280;23843;51.320;12.340;2022-07-21T08:11:37;100554.31;;;38.73;23.69
38038;BME280;23843;51.320;12.340;2022-07-21T08:14:03;100557.06;;;38.14;24.52
38038;BME280;23843;51.320;12.340;2022-07-21T08:16:28;100572.53;;;36.88;25.89
38038;BME280;23843;51.320;12.340;2022-07-21T08:18:54;100570.66;;;35.86;26.81
38038;BME280;23843;51.320;12.340;2022-07-21T08:21:19;100565.50;;;35.25;27.94
38038;BME280;23843;51.320;12.340;2022-07-21T08:23:44;100565.44;;;34.66;28.32
38038;BME280;23843;51.320;12.340;2022-07-21T08:26:10;100569.16;;;34.30;28.65
38038;BME280;23843;51.320;12.340;2022-07-21T08:28:37;100572.59;;;33.95;29.22
38038;BME280;23843;51.320;12.340;2022-07-21T08:31:02;100577.47;;;33.38;29.99
38038;BME280;23843;51.320;12.340;2022-07-21T08:33:27;100593.56;;;33.16;29.99
38038;BME280;23843;51.320;12.340;2022-07-21T08:35:53;100598.88;;;32.60;30.52
38038;BME280;23843;51.320;12.340;2022-07-21T08:38:18;100602.09;;;32.06;31.52
38038;BME280;23843;51.320;12.340;2022-07-21T08:40:45;100600.28;;;31.80;32.56
38038;BME280;23843;51.320;12.340;2022-07-21T08:43:11;100597.69;;;32.05;31.99
38038;BME280;23843;51.320;12.340;2022-07-21T08:45:38;100609.13;;;32.33;32.05
38038;BME280;23843;51.320;12.340;2022-07-21T08:48:05;100614.75;;;32.07;31.60
38038;BME280;23843;51.320;12.340;2022-07-21T08:50:33;100608.69;;;31.98;32.49
38038;BME280;23843;51.320;12.340;2022-07-21T08:52:59;100612.03;;;31.93;32.51
38038;BME280;23843;51.320;12.340;2022-07-21T08:55:24;100614.06;;;31.53;31.67
38038;BME280;23843;51.320;12.340;2022-07-21T08:57:50;100621.09;;;31.02;33.67
38038;BME280;23843;51.320;12.340;2022-07-21T09:00:16;100617.44;;;30.82;33.51
38038;BME280;23843;51.320;12.340;2022-07-21T09:02:43;100627.50;;;30.35;35.07
38038;BME280;23843;51.320;12.340;2022-07-21T09:05:09;100633.63;;;29.95;35.34
38038;BME280;23843;51.320;12.340;2022-07-21T09:07:49;100635.59;;;29.67;35.34
38038;BME280;23843;51.320;12.340;2022-07-21T09:10:15;100642.75;;;29.74;35.84
38038;BME280;23843;51.320;12.340;2022-07-21T09:12:48;100655.09;;;30.12;33.75
38038;BME280;23843;51.320;12.340;2022-07-21T09:15:15;100660.13;;;30.01;34.93
38038;BME280;23843;51.320;12.340;2022-07-21T09:17:42;100655.13;;;30.18;34.37
38038;BME280;23843;51.320;12.340;2022-07-21T09:20:21;100652.47;;;29.83;35.81
38038;BME280;23843;51.320;12.340;2022-07-21T09:23:01;100646.00;;;29.56;35.72
38038;BME280;23843;51.320;12.340;2022-07-21T09:25:38;100646.81;;;29.22;37.04
38038;BME280;23843;51.320;12.340;2022-07-21T09:28:12;100664.75;;;29.10;35.54
38038;BME280;23843;51.320;12.340;2022-07-21T09:30:49;100646.81;;;28.79;39.20
38038;BME280;23843;51.320;12.340;2022-07-21T09:33:27;100648.13;;;28.83;39.52
38038;BME280;23843;51.320;12.340;2022-07-21T09:35:59;100638.63;;;28.79;39.55
38038;BME280;23843;51.320;12.340;2022-07-21T09:38:25;100630.84;;;28.76;41.90
38038;BME280;23843;51.320;12.340;2022-07-21T09:40:51;100623.97;;;28.58;41.21
38038;BME280;23843;51.320;12.340;2022-07-21T09:43:37;100637.06;;;28.70;40.76
38038;BME280;23843;51.320;12.340;2022-07-21T09:46:03;100636.31;;;28.76;40.75
38038;BME280;23843;51.320;12.340;2022-07-21T09:48:31;100628.38;;;28.81;41.68
38038;BME280;23843;51.320;12.340;2022-07-21T09:50:57;100630.13;;;28.89;42.09
38038;BME280;23843;51.320;12.340;2022-07-21T09:53:48;100627.91;;;28.77;41.49
38038;BME280;23843;51.320;12.340;2022-07-21T09:56:15;100626.44;;;28.75;41.06
38038;BME280;23843;51.320;12.340;2022-07-21T09:58:41;100622.53;;;28.63;40.20
38038;BME280;23843;51.320;12.340;2022-07-21T10:01:07;100625.09;;;28.64;42.33
38038;BME280;23843;51.320;12.340;2022-07-21T10:03:34;100632.03;;;28.67;43.19
38038;BME280;23843;51.320;12.340;2022-07-21T10:06:00;100627.81;;;28.64;42.16
38038;BME280;23843;51.320;12.340;2022-07-21T10:08:26;100631.94;;;28.60;43.81
38038;BME280;23843;51.320;12.340;2022-07-21T10:10:51;100632.16;;;28.58;41.17
38038;BME280;23843;51.320;12.340;2022-07-21T10:13:17;100624.16;;;28.57;40.96
38038;BME280;23843;51.320;12.340;2022-07-21T10:15:44;100625.66;;;28.59;40.23
38038;BME280;23843;51.320;12.340;2022-07-21T10:18:11;100618.53;;;28.58;42.60
38038;BME280;23843;51.320;12.340;2022-07-21T10:20:41;100615.28;;;28.48;42.06
38038;BME280;23843;51.320;12.340;2022-07-21T10:23:14;100615.28;;;28.48;44.45
38038;BME280;23843;51.320;12.340;2022-07-21T10:25:41;100617.88;;;28.56;39.04
38038;BME280;23843;51.320;12.340;2022-07-21T10:28:18;100615.84;;;28.65;42.65
38038;BME280;23843;51.320;12.340;2022-07-21T10:30:46;100611.88;;;28.68;43.36
38038;BME280;23843;51.320;12.340;2022-07-21T10:33:13;100605.28;;;28.77;42.67
38038;BME280;23843;51.320;12.340;2022-07-21T10:35:41;100608.50;;;28.87;41.37
38038;BME280;23843;51.320;12.340;2022-07-21T10:38:24;100603.34;;;28.71;43.94
38038;BME280;23843;51.320;12.340;2022-07-21T10:40:51;100591.84;;;28.75;45.86
38038;BME280;23843;51.320;12.340;2022-07-21T10:43:40;100581.75;;;28.97;45.35
38038;BME280;23843;51.320;12.340;2022-07-21T10:46:34;100586.41;;;29.03;44.89
38038;BME280;23843;51.320;12.340;2022-07-21T10:49:00;100579.91;;;29.05;43.05
38038;BME280;23843;51.320;12.340;2022-07-21T10:51:26;100571.25;;;29.22;43.72
38038;BME280;23843;51.320;12.340;2022-07-21T10:54:17;100577.00;;;29.34;43.79
38038;BME280;23843;51.320;12.340;2022-07-21T10:56:43;100579.38;;;29.44;43.66
38038;BME280;23843;51.320;12.340;2022-07-21T10:59:08;100568.28;;;29.52;42.22
38038;BME280;23843;51.320;12.340;2022-07-21T11:01:33;100574.69;;;29.66;41.29
38038;BME280;23843;51.320;12.340;2022-07-21T11:04:10;100566.31;;;29.74;41.70
38038;BME280;23843;51.320;12.340;2022-07-21T11:06:39;100568.81;;;29.69;42.49
38038;BME280;23843;51.320;12.340;2022-07-21T11:09:09;100568.47;;;29.85;41.41
38038;BME280;23843;51.320;12.340;2022-07-21T11:11:36;100570.16;;;29.93;40.47
38038;BME280;23843;51.320;12.340;2022-07-21T11:14:05;100568.91;;;29.96;41.68
38038;BME280;23843;51.320;12.340;2022-07-21T11:19:37;100571.63;;;29.96;41.36
38038;BME280;23843;51.320;12.340;2022-07-21T11:22:08;100567.91;;;30.23;40.42
38038;BME280;23843;51.320;12.340;2022-07-21T11:24:34;100561.88;;;30.28;41.23
38038;BME280;23843;51.320;12.340;2022-07-21T11:27:01;100549.69;;;30.37;41.02
38038;BME280;23843;51.320;12.340;2022-07-21T11:29:28;100549.06;;;30.42;40.66
38038;BME280;23843;51.320;12.340;2022-07-21T11:31:54;100544.25;;;30.44;40.45
38038;BME280;23843;51.320;12.340;2022-07-21T11:34:20;100541.72;;;30.49;41.31
38038;BME280;23843;51.320;12.340;2022-07-21T11:36:45;100538.97;;;30.42;41.03
38038;BME280;23843;51.320;12.340;2022-07-21T11:39:13;100537.94;;;30.50;40.70
38038;BME280;23843;51.320;12.340;2022-07-21T11:41:40;100534.34;;;30.49;40.55
38038;BME280;23843;51.320;12.340;2022-07-21T11:44:08;100533.09;;;30.52;40.38
38038;BME280;23843;51.320;12.340;2022-07-21T11:46:48;100525.31;;;30.49;40.29
38038;BME280;23843;51.320;12.340;2022-07-21T11:49:13;100525.91;;;30.31;40.74
38038;BME280;23843;51.320;12.340;2022-07-21T11:51:45;100521.94;;;30.27;40.10
38038;BME280;23843;51.320;12.340;2022-07-21T11:54:20;100518.53;;;30.18;40.97
38038;BME280;23843;51.320;12.340;2022-07-21T11:56:48;100506.97;;;30.10;40.48
38038;BME280;23843;51.320;12.340;2022-07-21T11:59:14;100508.81;;;29.96;42.05
38038;BME280;23843;51.320;12.340;2022-07-21T12:01:50;100504.56;;;29.80;42.99
38038;BME280;23843;51.320;12.340;2022-07-21T12:04:29;100510.47;;;29.83;41.89
38038;BME280;23843;51.320;12.340;2022-07-21T12:06:55;100510.03;;;29.73;42.57
38038;BME280;23843;51.320;12.340;2022-07-21T12:09:22;100504.34;;;29.33;44.57
38038;BME280;23843;51.320;12.340;2022-07-21T12:11:48;100502.91;;;29.37;43.70
38038;BME280;23843;51.320;12.340;2022-07-21T12:14:13;100499.25;;;29.17;44.40
38038;BME280;23843;51.320;12.340;2022-07-21T12:16:47;100491.44;;;29.14;45.08
38038;BME280;23843;51.320;12.340;2022-07-21T12:19:17;100495.88;;;29.15;44.86
38038;BME280;23843;51.320;12.340;2022-07-21T12:21:44;100487.75;;;29.28;44.93
38038;BME280;23843;51.320;12.340;2022-07-21T12:24:09;100487.75;;;29.28;44.44
38038;BME280;23843;51.320;12.340;2022-07-21T12:26:36;100487.97;;;29.33;45.45
38038;BME280;23843;51.320;12.340;2022-07-21T12:29:02;100488.56;;;29.29;45.53
38038;BME280;23843;51.320;12.340;2022-07-21T12:31:27;100479.97;;;29.25;45.49
38038;BME280;23843;51.320;12.340;2022-07-21T12:33:54;100474.56;;;29.32;45.59
38038;BME280;23843;51.320;12.340;2022-07-21T12:36:20;100467.13;;;29.19;46.34
38038;BME280;23843;51.320;12.340;2022-07-21T12:38:48;100462.31;;;29.14;46.36
38038;BME280;23843;51.320;12.340;2022-07-21T12:41:15;100456.09;;;29.34;45.22